sensor_id;sensor_type;location;lat;lon;timestamp;pressure;altitude;pressure_sealevel;temperature;humidity
73085;BME280;62974;49.460;10.892;2023-02-21T00:02:28;98229.16;;;6.68;83.12
73085;BME280;62974;49.460;10.892;2023-02-21T00:05:14;98223.97;;;6.74;82.92
73085;BME280;62974;49.460;10.892;2023-02-21T00:07:59;98221.66;;;6.87;82.67
73085;BME280;62974;49.460;10.892;2023-02-21T00:10:45;98229.66;;;6.71;83.16
73085;BME280;62974;49.460;10.892;2023-02-21T00:13:34;98227.97;;;6.62;83.26
73085;BME280;62974;49.460;10.892;2023-02-21T00:16:19;98226.00;;;6.64;83.14
73085;BME280;62974;49.460;10.892;2023-02-21T00:19:05;98219.97;;;6.70;83.43
73085;BME280;62974;49.460;10.892;2023-02-21T00:21:50;98220.44;;;6.49;83.91
73085;BME280;62974;49.460;10.892;2023-02-21T00:24:36;98215.31;;;6.48;83.96
73085;BME280;62974;49.460;10.892;2023-02-21T00:27:21;98209.63;;;6.51;83.76
73085;BME280;62974;49.460;10.892;2023-02-21T00:30:10;98205.59;;;6.39;84.45
73085;BME280;62974;49.460;10.892;2023-02-21T00:32:55;98206.78;;;6.36;84.60
73085;BME280;62974;49.460;10.892;2023-02-21T00:35:41;98208.47;;;6.70;83.41
73085;BME280;62974;49.460;10.892;2023-02-21T00:38:25;98200.28;;;6.39;84.23
73085;BME280;62974;49.460;10.892;2023-02-21T00:41:10;98199.13;;;6.57;83.97
73085;BME280;62974;49.460;10.892;2023-02-21T00:43:56;98200.41;;;6.29;84.24
73085;BME280;62974;49.460;10.892;2023-02-21T00:46:43;98199.59;;;6.53;83.73
73085;BME280;62974;49.460;10.892;2023-02-21T00:49:28;98192.13;;;6.56;83.52
73085;BME280;62974;49.460;10.892;2023-02-21T00:52:13;98197.91;;;6.28;84.38
73085;BME280;62974;49.460;10.892;2023-02-21T00:54:58;98203.31;;;6.52;84.01
73085;BME280;62974;49.460;10.892;2023-02-21T00:57:44;98203.44;;;6.34;84.08
73085;BME280;62974;49.460;10.892;2023-02-21T01:00:29;98196.09;;;6.36;83.63
73085;BME280;62974;49.460;10.892;2023-02-21T01:03:16;98195.06;;;6.13;83.62
73085;BME280;62974;49.460;10.892;2023-02-21T01:06:01;98187.63;;;6.41;84.50
73085;BME280;62974;49.460;10.892;2023-02-21T01:08:46;98182.47;;;6.55;84.10
73085;BME280;62974;49.460;10.892;2023-02-21T01:11:32;98174.63;;;6.70;82.53
73085;BME280;62974;49.460;10.892;2023-02-21T01:14:17;98186.47;;;6.68;82.18
73085;BME280;62974;49.460;10.892;2023-02-21T01:17:02;98187.47;;;6.75;81.14
73085;BME280;62974;49.460;10.892;2023-02-21T01:19:49;98190.47;;;6.64;82.04
73085;BME280;62974;49.460;10.892;2023-02-21T01:22:34;98187.63;;;6.65;81.04
73085;BME280;62974;49.460;10.892;2023-02-21T01:25:20;98183.31;;;6.64;81.52
73085;BME280;62974;49.460;10.892;2023-02-21T01:28:05;98187.44;;;6.58;80.62
73085;BME280;62974;49.460;10.892;2023-02-21T01:30:50;98182.94;;;6.59;80.18
73085;BME280;62974;49.460;10.892;2023-02-21T01:33:37;98179.44;;;6.50;80.72
73085;BME280;62974;49.460;10.892;2023-02-21T01:36:24;98181.28;;;6.50;81.64
73085;BME280;62974;49.460;10.892;2023-02-21T01:39:10;98179.28;;;6.52;81.37
73085;BME280;62974;49.460;10.892;2023-02-21T01:41:55;98180.13;;;6.44;80.11
73085;BME280;62974;49.460;10.892;2023-02-21T01:44:41;98181.75;;;6.37;80.67
73085;BME280;62974;49.460;10.892;2023-02-21T01:47:27;98184.94;;;6.41;80.40
73085;BME280;62974;49.460;10.892;2023-02-21T01:50:18;98180.75;;;6.30;79.91
73085;BME280;62974;49.460;10.892;2023-02-21T01:53:07;98180.59;;;6.24;79.72
73085;BME280;62974;49.460;10.892;2023-02-21T01:55:55;98183.03;;;6.17;80.66
73085;BME280;62974;49.460;10.892;2023-02-21T01:58:41;98172.06;;;6.12;81.00
73085;BME280;62974;49.460;10.892;2023-02-21T02:01:33;98178.22;;;6.04;81.09
73085;BME280;62974;49.460;10.892;2023-02-21T02:04:20;98178.22;;;6.04;81.13
73085;BME280;62974;49.460;10.892;2023-02-21T02:07:05;98173.72;;;6.05;81.46
73085;BME280;62974;49.460;10.892;2023-02-21T02:09:52;98163.56;;;6.08;81.39
73085;BME280;62974;49.460;10.892;2023-02-21T02:12:55;98166.50;;;5.97;81.04
73085;BME280;62974;49.460;10.892;2023-02-21T02:15:34;98172.16;;;5.94;81.68
73085;BME280;62974;49.460;10.892;2023-02-21T02:18:28;98168.19;;;6.06;81.41
73085;BME280;62974;49.460;10.892;2023-02-21T02:21:39;98172.41;;;6.09;81.51
73085;BME280;62974;49.460;10.892;2023-02-21T02:27:54;98167.31;;;5.90;80.73
73085;BME280;62974;49.460;10.892;2023-02-21T02:30:42;98160.38;;;5.97;81.22
73085;BME280;62974;49.460;10.892;2023-02-21T02:33:54;98152.38;;;5.97;81.72
73085;BME280;62974;49.460;10.892;2023-02-21T02:36:35;98154.84;;;5.90;80.73
73085;BME280;62974;49.460;10.892;2023-02-21T02:39:14;98163.34;;;5.94;81.05
73085;BME280;62974;49.460;10.892;2023-02-21T02:41:50;98158.13;;;5.84;80.94
73085;BME280;62974;49.460;10.892;2023-02-21T02:44:23;98153.50;;;5.86;81.08
73085;BME280;62974;49.460;10.892;2023-02-21T02:46:55;98159.13;;;5.83;80.12
73085;BME280;62974;49.460;10.892;2023-02-21T02:49:28;98154.13;;;5.80;81.15
73085;BME280;62974;49.460;10.892;2023-02-21T02:52:04;98149.41;;;5.74;80.83
73085;BME280;62974;49.460;10.892;2023-02-21T02:54:32;98158.75;;;5.78;81.57
73085;BME280;62974;49.460;10.892;2023-02-21T02:57:01;98158.75;;;5.36;82.45
73085;BME280;62974;49.460;10.892;2023-02-21T02:59:31;98154.25;;;5.71;81.24
73085;BME280;62974;49.460;10.892;2023-02-21T03:02:15;98161.25;;;5.72;81.38
73085;BME280;62974;49.460;10.892;2023-02-21T03:07:45;98169.59;;;5.77;81.89
73085;BME280;62974;49.460;10.892;2023-02-21T03:10:20;98167.59;;;5.79;81.21
73085;BME280;62974;49.460;10.892;2023-02-21T03:12:50;98166.63;;;5.46;81.56
73085;BME280;62974;49.460;10.892;2023-02-21T03:15:24;98168.38;;;5.63;81.50
73085;BME280;62974;49.460;10.892;2023-02-21T03:17:58;98171.75;;;5.73;81.34
73085;BME280;62974;49.460;10.892;2023-02-21T03:20:27;98171.06;;;5.71;80.87
73085;BME280;62974;49.460;10.892;2023-02-21T03:22:56;98183.53;;;5.71;81.79
73085;BME280;62974;49.460;10.892;2023-02-21T03:25:28;98172.38;;;5.67;82.00
73085;BME280;62974;49.460;10.892;2023-02-21T03:27:59;98170.69;;;5.66;80.88
73085;BME280;62974;49.460;10.892;2023-02-21T03:30:27;98173.56;;;5.73;81.25
73085;BME280;62974;49.460;10.892;2023-02-21T03:32:56;98175.53;;;5.62;80.91
73085;BME280;62974;49.460;10.892;2023-02-21T03:35:27;98177.84;;;5.65;80.82
73085;BME280;62974;49.460;10.892;2023-02-21T03:37:57;98170.03;;;5.64;80.23
73085;BME280;62974;49.460;10.892;2023-02-21T03:40:26;98172.22;;;5.68;80.92
73085;BME280;62974;49.460;10.892;2023-02-21T03:42:56;98175.53;;;5.62;81.42
73085;BME280;62974;49.460;10.892;2023-02-21T03:45:23;98177.56;;;5.68;81.65
73085;BME280;62974;49.460;10.892;2023-02-21T03:47:51;98177.03;;;5.65;80.56
73085;BME280;62974;49.460;10.892;2023-02-21T03:50:19;98177.53;;;5.60;81.29
73085;BME280;62974;49.460;10.892;2023-02-21T03:52:46;98174.03;;;5.60;80.79
73085;BME280;62974;49.460;10.892;2023-02-21T03:55:15;98183.56;;;5.11;84.02
73085;BME280;62974;49.460;10.892;2023-02-21T03:57:43;98185.38;;;5.36;81.89
73085;BME280;62974;49.460;10.892;2023-02-21T04:00:12;98171.31;;;5.52;82.78
73085;BME280;62974;49.460;10.892;2023-02-21T04:02:40;98176.31;;;5.55;83.06
73085;BME280;62974;49.460;10.892;2023-02-21T04:05:07;98175.34;;;5.56;83.35
73085;BME280;62974;49.460;10.892;2023-02-21T04:07:35;98172.28;;;5.43;84.60
73085;BME280;62974;49.460;10.892;2023-02-21T04:10:03;98174.88;;;5.35;85.10
73085;BME280;62974;49.460;10.892;2023-02-21T04:12:31;98172.81;;;5.20;87.19
73085;BME280;62974;49.460;10.892;2023-02-21T04:14:59;98160.16;;;5.48;86.56
73085;BME280;62974;49.460;10.892;2023-02-21T04:17:27;98158.91;;;5.35;87.38
73085;BME280;62974;49.460;10.892;2023-02-21T04:19:54;98158.50;;;5.21;88.47
73085;BME280;62974;49.460;10.892;2023-02-21T04:22:22;98160.72;;;5.34;88.68
73085;BME280;62974;49.460;10.892;2023-02-21T04:24:50;98164.41;;;5.33;88.33
73085;BME280;62974;49.460;10.892;2023-02-21T04:27:18;98160.25;;;5.39;87.60
73085;BME280;62974;49.460;10.892;2023-02-21T04:29:46;98161.25;;;5.38;88.57
73085;BME280;62974;49.460;10.892;2023-02-21T04:32:14;98155.31;;;5.44;88.39
73085;BME280;62974;49.460;10.892;2023-02-21T04:34:41;98158.41;;;5.31;89.59
73085;BME280;62974;49.460;10.892;2023-02-21T04:37:09;98156.84;;;5.54;87.58
73085;BME280;62974;49.460;10.892;2023-02-21T04:39:36;98151.28;;;5.40;89.34
73085;BME280;62974;49.460;10.892;2023-02-21T04:42:04;98150.31;;;5.41;89.59
73085;BME280;62974;49.460;10.892;2023-02-21T04:44:31;98156.09;;;5.36;89.31
73085;BME280;62974;49.460;10.892;2023-02-21T04:47:00;98140.22;;;5.60;88.29
73085;BME280;62974;49.460;10.892;2023-02-21T04:49:28;98139.75;;;5.65;87.43
73085;BME280;62974;49.460;10.892;2023-02-21T04:51:55;98135.38;;;5.56;87.69
73085;BME280;62974;49.460;10.892;2023-02-21T04:54:23;98132.88;;;5.54;87.41
73085;BME280;62974;49.460;10.892;2023-02-21T04:56:50;98126.19;;;5.50;87.90
73085;BME280;62974;49.460;10.892;2023-02-21T04:59:18;98129.06;;;5.57;87.37
73085;BME280;62974;49.460;10.892;2023-02-21T05:01:45;98127.31;;;5.40;88.29
73085;BME280;62974;49.460;10.892;2023-02-21T05:04:14;98123.31;;;5.36;89.22
73085;BME280;62974;49.460;10.892;2023-02-21T05:06:41;98131.19;;;5.45;88.92
73085;BME280;62974;49.460;10.892;2023-02-21T05:09:10;98119.00;;;5.43;88.87
73085;BME280;62974;49.460;10.892;2023-02-21T05:11:37;98118.06;;;5.18;89.35
73085;BME280;62974;49.460;10.892;2023-02-21T05:14:05;98124.81;;;5.38;89.10
73085;BME280;62974;49.460;10.892;2023-02-21T05:16:32;98122.94;;;5.31;89.28
73085;BME280;62974;49.460;10.892;2023-02-21T05:19:00;98122.88;;;5.48;88.28
73085;BME280;62974;49.460;10.892;2023-02-21T05:21:33;98119.19;;;5.41;89.04
73085;BME280;62974;49.460;10.892;2023-02-21T05:24:00;98120.63;;;5.28;89.78
73085;BME280;62974;49.460;10.892;2023-02-21T05:26:34;98113.91;;;5.49;87.69
73085;BME280;62974;49.460;10.892;2023-02-21T05:29:02;98121.56;;;5.52;87.76
73085;BME280;62974;49.460;10.892;2023-02-21T05:31:29;98120.78;;;5.34;89.59
73085;BME280;62974;49.460;10.892;2023-02-21T05:33:57;98125.31;;;5.42;89.67
73085;BME280;62974;49.460;10.892;2023-02-21T05:36:24;98122.88;;;5.48;89.44
73085;BME280;62974;49.460;10.892;2023-02-21T05:38:54;98130.31;;;5.37;89.93
73085;BME280;62974;49.460;10.892;2023-02-21T05:41:22;98125.03;;;5.45;89.83
73085;BME280;62974;49.460;10.892;2023-02-21T05:43:50;98130.59;;;5.34;90.22
73085;BME280;62974;49.460;10.892;2023-02-21T05:46:20;98124.00;;;5.46;89.38
73085;BME280;62974;49.460;10.892;2023-02-21T05:48:48;98132.50;;;5.41;89.44
73085;BME280;62974;49.460;10.892;2023-02-21T05:51:16;98129.28;;;5.38;89.92
73085;BME280;62974;49.460;10.892;2023-02-21T05:53:44;98129.47;;;5.36;90.91
73085;BME280;62974;49.460;10.892;2023-02-21T05:56:13;98128.34;;;5.47;89.93
73085;BME280;62974;49.460;10.892;2023-02-21T05:58:42;98127.88;;;5.51;89.90
73085;BME280;62974;49.460;10.892;2023-02-21T06:01:09;98122.97;;;5.39;90.94
73085;BME280;62974;49.460;10.892;2023-02-21T06:03:38;98121.66;;;5.43;90.68
73085;BME280;62974;49.460;10.892;2023-02-21T06:06:05;98122.41;;;5.53;89.69
73085;BME280;62974;49.460;10.892;2023-02-21T06:08:41;98126.19;;;5.50;89.35
73085;BME280;62974;49.460;10.892;2023-02-21T06:11:08;98112.94;;;5.66;88.63
73085;BME280;62974;49.460;10.892;2023-02-21T06:13:37;98116.56;;;5.57;89.04
73085;BME280;62974;49.460;10.892;2023-02-21T06:16:05;98122.03;;;5.48;89.82
73085;BME280;62974;49.460;10.892;2023-02-21T06:18:33;98125.72;;;5.55;89.32
73085;BME280;62974;49.460;10.892;2023-02-21T06:21:00;98122.56;;;5.59;89.18
73085;BME280;62974;49.460;10.892;2023-02-21T06:23:28;98120.56;;;5.61;88.86
73085;BME280;62974;49.460;10.892;2023-02-21T06:25:55;98122.25;;;5.62;89.05
73085;BME280;62974;49.460;10.892;2023-02-21T06:28:26;98116.59;;;5.65;89.37
73085;BME280;62974;49.460;10.892;2023-02-21T06:30:56;98118.06;;;5.52;90.00
73085;BME280;62974;49.460;10.892;2023-02-21T06:33:24;98117.56;;;5.56;90.46
73085;BME280;62974;49.460;10.892;2023-02-21T06:35:52;98120.38;;;5.55;90.13
73085;BME280;62974;49.460;10.892;2023-02-21T06:38:19;98121.72;;;5.59;90.14
73085;BME280;62974;49.460;10.892;2023-02-21T06:40:47;98118.63;;;5.80;89.56
73085;BME280;62974;49.460;10.892;2023-02-21T06:43:14;98119.09;;;5.67;89.46
73085;BME280;62974;49.460;10.892;2023-02-21T06:45:42;98125.63;;;5.73;89.17
73085;BME280;62974;49.460;10.892;2023-02-21T06:48:14;98124.44;;;5.75;89.40
73085;BME280;62974;49.460;10.892;2023-02-21T06:50:42;98128.06;;;5.66;90.26
73085;BME280;62974;49.460;10.892;2023-02-21T06:53:10;98126.31;;;5.83;89.65
73085;BME280;62974;49.460;10.892;2023-02-21T06:55:37;98131.34;;;5.94;88.87
73085;BME280;62974;49.460;10.892;2023-02-21T06:58:05;98137.84;;;5.91;89.44
73085;BME280;62974;49.460;10.892;2023-02-21T07:00:32;98132.53;;;5.99;88.62
73085;BME280;62974;49.460;10.892;2023-02-21T07:02:59;98137.34;;;5.88;89.43
73085;BME280;62974;49.460;10.892;2023-02-21T07:05:28;98129.72;;;5.93;88.94
73085;BME280;62974;49.460;10.892;2023-02-21T07:07:59;98139.28;;;5.86;89.71
73085;BME280;62974;49.460;10.892;2023-02-21T07:10:28;98145.50;;;5.94;89.54
73085;BME280;62974;49.460;10.892;2023-02-21T07:12:55;98141.03;;;5.95;89.80
73085;BME280;62974;49.460;10.892;2023-02-21T07:15:23;98144.03;;;5.92;89.47
73085;BME280;62974;49.460;10.892;2023-02-21T07:17:50;98142.19;;;5.92;89.95
73085;BME280;62974;49.460;10.892;2023-02-21T07:20:18;98140.38;;;5.93;90.99
73085;BME280;62974;49.460;10.892;2023-02-21T07:22:47;98142.00;;;5.94;90.29
73085;BME280;62974;49.460;10.892;2023-02-21T07:25:14;98142.03;;;6.02;89.78
73085;BME280;62974;49.460;10.892;2023-02-21T07:27:42;98145.19;;;6.05;89.86
73085;BME280;62974;49.460;10.892;2023-02-21T07:30:10;98139.56;;;6.08;89.73
73085;BME280;62974;49.460;10.892;2023-02-21T07:32:38;98137.06;;;6.15;89.60
73085;BME280;62974;49.460;10.892;2023-02-21T07:35:06;98140.38;;;6.17;89.44
73085;BME280;62974;49.460;10.892;2023-02-21T07:37:34;98133.72;;;6.21;89.88
73085;BME280;62974;49.460;10.892;2023-02-21T07:40:04;98144.59;;;6.28;89.57
73085;BME280;62974;49.460;10.892;2023-02-21T07:42:33;98141.09;;;6.27;89.05
73085;BME280;62974;49.460;10.892;2023-02-21T07:45:00;98145.25;;;6.30;89.07
73085;BME280;62974;49.460;10.892;2023-02-21T07:47:28;98158.91;;;6.27;89.83
73085;BME280;62974;49.460;10.892;2023-02-21T07:49:56;98152.25;;;6.31;89.13
73085;BME280;62974;49.460;10.892;2023-02-21T07:52:23;98145.06;;;6.23;89.70
73085;BME280;62974;49.460;10.892;2023-02-21T07:54:50;98153.06;;;6.23;89.67
73085;BME280;62974;49.460;10.892;2023-02-21T07:57:19;98142.75;;;6.28;89.08
73085;BME280;62974;49.460;10.892;2023-02-21T07:59:47;98153.75;;;6.33;88.87
73085;BME280;62974;49.460;10.892;2023-02-21T08:02:14;98163.75;;;6.31;89.58
73085;BME280;62974;49.460;10.892;2023-02-21T08:04:42;98153.59;;;6.35;89.80
73085;BME280;62974;49.460;10.892;2023-02-21T08:07:09;98155.09;;;6.45;88.95
73085;BME280;62974;49.460;10.892;2023-02-21T08:09:37;98161.13;;;6.55;89.07
73085;BME280;62974;49.460;10.892;2023-02-21T08:12:05;98159.94;;;6.58;88.48
73085;BME280;62974;49.460;10.892;2023-02-21T08:14:34;98157.59;;;6.63;88.32
73085;BME280;62974;49.460;10.892;2023-02-21T08:17:01;98160.63;;;6.68;88.09
73085;BME280;62974;49.460;10.892;2023-02-21T08:19:28;98160.63;;;6.68;88.00
73085;BME280;62974;49.460;10.892;2023-02-21T08:21:56;98161.47;;;6.69;88.27
73085;BME280;62974;49.460;10.892;2023-02-21T08:24:23;98163.28;;;6.68;88.36
73085;BME280;62974;49.460;10.892;2023-02-21T08:26:50;98178.47;;;6.68;88.44
73085;BME280;62974;49.460;10.892;2023-02-21T08:29:18;98172.44;;;6.82;88.66
73085;BME280;62974;49.460;10.892;2023-02-21T08:31:47;98173.78;;;6.78;88.17
73085;BME280;62974;49.460;10.892;2023-02-21T08:34:15;98183.94;;;6.98;88.26
73085;BME280;62974;49.460;10.892;2023-02-21T08:36:42;98178.13;;;6.95;88.18
73085;BME280;62974;49.460;10.892;2023-02-21T08:39:10;98189.09;;;7.24;87.79
73085;BME280;62974;49.460;10.892;2023-02-21T08:41:39;98190.22;;;7.38;86.95
73085;BME280;62974;49.460;10.892;2023-02-21T08:44:10;98193.03;;;7.44;87.61
73085;BME280;62974;49.460;10.892;2023-02-21T08:46:38;98189.66;;;7.59;85.70
73085;BME280;62974;49.460;10.892;2023-02-21T08:49:08;98190.00;;;7.55;86.81
73085;BME280;62974;49.460;10.892;2023-02-21T08:51:36;98190.56;;;7.82;85.79
73085;BME280;62974;49.460;10.892;2023-02-21T08:54:05;98195.81;;;7.67;87.37
73085;BME280;62974;49.460;10.892;2023-02-21T08:56:33;98204.22;;;7.95;87.06
73085;BME280;62974;49.460;10.892;2023-02-21T08:59:00;98203.91;;;7.90;86.56
73085;BME280;62974;49.460;10.892;2023-02-21T09:01:31;98200.50;;;7.65;87.34
73085;BME280;62974;49.460;10.892;2023-02-21T09:04:00;98205.78;;;7.81;87.75
73085;BME280;62974;49.460;10.892;2023-02-21T09:06:29;98212.75;;;7.90;88.62
73085;BME280;62974;49.460;10.892;2023-02-21T09:08:56;98201.03;;;8.38;85.31
73085;BME280;62974;49.460;10.892;2023-02-21T09:11:24;98208.59;;;8.27;84.34
73085;BME280;62974;49.460;10.892;2023-02-21T09:13:51;98204.69;;;8.37;85.43
73085;BME280;62974;49.460;10.892;2023-02-21T09:16:21;98204.53;;;8.62;83.92
73085;BME280;62974;49.460;10.892;2023-02-21T09:18:53;98204.41;;;8.78;84.42
73085;BME280;62974;49.460;10.892;2023-02-21T09:21:21;98204.78;;;8.75;84.30
73085;BME280;62974;49.460;10.892;2023-02-21T09:23:55;98204.25;;;8.79;83.61
73085;BME280;62974;49.460;10.892;2023-02-21T09:26:24;98206.19;;;8.85;83.30
73085;BME280;62974;49.460;10.892;2023-02-21T09:28:52;98199.47;;;8.89;84.25
73085;BME280;62974;49.460;10.892;2023-02-21T09:31:19;98197.72;;;8.96;82.20
73085;BME280;62974;49.460;10.892;2023-02-21T09:33:47;98195.75;;;9.13;83.22
73085;BME280;62974;49.460;10.892;2023-02-21T09:36:15;98196.94;;;9.11;82.30
73085;BME280;62974;49.460;10.892;2023-02-21T09:38:49;98196.06;;;9.33;82.71
73085;BME280;62974;49.460;10.892;2023-02-21T09:41:18;98203.06;;;9.19;83.25
73085;BME280;62974;49.460;10.892;2023-02-21T09:43:48;98193.81;;;9.22;82.47
73085;BME280;62974;49.460;10.892;2023-02-21T09:46:19;98196.59;;;9.14;83.51
73085;BME280;62974;49.460;10.892;2023-02-21T09:48:47;98190.91;;;9.46;82.37
73085;BME280;62974;49.460;10.892;2023-02-21T09:51:15;98190.53;;;9.34;81.53
73085;BME280;62974;49.460;10.892;2023-02-21T09:53:45;98197.94;;;9.47;81.64
73085;BME280;62974;49.460;10.892;2023-02-21T09:56:20;98192.06;;;9.29;81.83
73085;BME280;62974;49.460;10.892;2023-02-21T09:58:51;98185.09;;;9.42;81.57
73085;BME280;62974;49.460;10.892;2023-02-21T10:01:27;98196.16;;;9.39;83.22
73085;BME280;62974;49.460;10.892;2023-02-21T10:04:03;98192.28;;;9.27;83.79
73085;BME280;62974;49.460;10.892;2023-02-21T10:06:40;98193.81;;;9.22;82.92
73085;BME280;62974;49.460;10.892;2023-02-21T10:09:20;98196.13;;;9.10;83.81
73085;BME280;62974;49.460;10.892;2023-02-21T10:12:09;98187.13;;;9.55;81.71
73085;BME280;62974;49.460;10.892;2023-02-21T10:14:54;98185.91;;;9.58;82.32
73085;BME280;62974;49.460;10.892;2023-02-21T10:17:31;98184.63;;;9.54;83.26
73085;BME280;62974;49.460;10.892;2023-02-21T10:20:04;98187.50;;;9.67;82.37
73085;BME280;62974;49.460;10.892;2023-02-21T10:22:38;98192.50;;;9.55;83.12
73085;BME280;62974;49.460;10.892;2023-02-21T10:25:19;98188.22;;;9.90;81.03
73085;BME280;62974;49.460;10.892;2023-02-21T10:27:50;98180.06;;;9.98;81.87
73085;BME280;62974;49.460;10.892;2023-02-21T10:30:26;98184.03;;;10.02;80.20
73085;BME280;62974;49.460;10.892;2023-02-21T10:32:55;98186.53;;;10.18;80.23
73085;BME280;62974;49.460;10.892;2023-02-21T10:35:24;98184.16;;;9.65;82.26
73085;BME280;62974;49.460;10.892;2023-02-21T10:37:53;98188.38;;;10.03;81.87
73085;BME280;62974;49.460;10.892;2023-02-21T10:40:33;98189.78;;;9.99;82.30
73085;BME280;62974;49.460;10.892;2023-02-21T10:43:07;98189.16;;;9.82;82.18
73085;BME280;62974;49.460;10.892;2023-02-21T10:45:39;98178.28;;;10.05;81.80
73085;BME280;62974;49.460;10.892;2023-02-21T10:48:12;98178.22;;;9.99;81.88
73085;BME280;62974;49.460;10.892;2023-02-21T10:50:43;98182.53;;;10.00;82.85
73085;BME280;62974;49.460;10.892;2023-02-21T10:53:26;98179.44;;;10.47;80.94
73085;BME280;62974;49.460;10.892;2023-02-21T10:56:19;98174.06;;;10.47;80.97
73085;BME280;62974;49.460;10.892;2023-02-21T10:58:51;98173.13;;;10.18;81.64
73085;BME280;62974;49.460;10.892;2023-02-21T11:01:21;98167.38;;;10.21;83.43
73085;BME280;62974;49.460;10.892;2023-02-21T11:03:52;98160.25;;;10.50;81.31
73085;BME280;62974;49.460;10.892;2023-02-21T11:06:24;98161.25;;;10.13;83.14
73085;BME280;62974;49.460;10.892;2023-02-21T11:08:53;98168.09;;;10.30;81.54
73085;BME280;62974;49.460;10.892;2023-02-21T11:11:32;98156.91;;;10.26;82.37
73085;BME280;62974;49.460;10.892;2023-02-21T11:14:24;98153.34;;;10.41;81.44
73085;BME280;62974;49.460;10.892;2023-02-21T11:17:13;98149.63;;;10.42;81.10
73085;BME280;62974;49.460;10.892;2023-02-21T11:19:47;98152.94;;;10.08;82.48
73085;BME280;62974;49.460;10.892;2023-02-21T11:22:16;98147.56;;;10.44;82.08
73085;BME280;62974;49.460;10.892;2023-02-21T11:24:58;98144.63;;;10.03;84.06
73085;BME280;62974;49.460;10.892;2023-02-21T11:27:29;98145.66;;;10.02;84.62
73085;BME280;62974;49.460;10.892;2023-02-21T11:30:00;98133.19;;;10.51;82.28
73085;BME280;62974;49.460;10.892;2023-02-21T11:32:32;98127.81;;;10.72;81.10
73085;BME280;62974;49.460;10.892;2023-02-21T11:35:07;98119.19;;;11.05;80.32
73085;BME280;62974;49.460;10.892;2023-02-21T11:37:47;98117.97;;;11.07;79.73
73085;BME280;62974;49.460;10.892;2023-02-21T11:40:26;98123.53;;;10.57;82.40
73085;BME280;62974;49.460;10.892;2023-02-21T11:43:13;98114.09;;;10.61;82.98
73085;BME280;62974;49.460;10.892;2023-02-21T11:45:52;98097.94;;;11.44;79.06
73085;BME280;62974;49.460;10.892;2023-02-21T11:48:24;98098.34;;;11.41;80.07
73085;BME280;62974;49.460;10.892;2023-02-21T11:51:00;98104.75;;;11.06;82.46
73085;BME280;62974;49.460;10.892;2023-02-21T11:53:35;98100.00;;;11.08;82.12
73085;BME280;62974;49.460;10.892;2023-02-21T11:56:10;98095.53;;;11.21;81.92
73085;BME280;62974;49.460;10.892;2023-02-21T11:58:44;98089.06;;;11.09;80.75
73085;BME280;62974;49.460;10.892;2023-02-21T12:01:18;98087.75;;;11.33;80.86
73085;BME280;62974;49.460;10.892;2023-02-21T12:03:56;98070.59;;;11.34;79.89
73085;BME280;62974;49.460;10.892;2023-02-21T12:06:35;98084.00;;;11.00;81.66
73085;BME280;62974;49.460;10.892;2023-02-21T12:09:07;98067.59;;;11.50;79.97
73085;BME280;62974;49.460;10.892;2023-02-21T12:11:50;98063.97;;;11.37;79.92
73085;BME280;62974;49.460;10.892;2023-02-21T12:17:17;98056.41;;;11.53;79.47
73085;BME280;62974;49.460;10.892;2023-02-21T12:20:00;98058.34;;;11.25;82.27
73085;BME280;62974;49.460;10.892;2023-02-21T12:22:44;98044.75;;;11.74;79.61
73085;BME280;62974;49.460;10.892;2023-02-21T12:25:19;98044.75;;;11.74;79.00
73085;BME280;62974;49.460;10.892;2023-02-21T12:27:51;98032.69;;;11.70;79.13
73085;BME280;62974;49.460;10.892;2023-02-21T12:30:32;98028.44;;;11.48;80.48
73085;BME280;62974;49.460;10.892;2023-02-21T12:33:17;98036.19;;;11.23;82.03
73085;BME280;62974;49.460;10.892;2023-02-21T12:36:00;98034.94;;;10.84;83.08
73085;BME280;62974;49.460;10.892;2023-02-21T12:38:44;98035.06;;;10.76;83.39
73085;BME280;62974;49.460;10.892;2023-02-21T12:41:27;98016.66;;;11.08;82.27
73085;BME280;62974;49.460;10.892;2023-02-21T12:44:05;98015.66;;;10.74;84.41
73085;BME280;62974;49.460;10.892;2023-02-21T12:46:40;98015.84;;;10.73;84.24
73085;BME280;62974;49.460;10.892;2023-02-21T12:49:13;98005.16;;;11.20;81.89
73085;BME280;62974;49.460;10.892;2023-02-21T12:51:46;97999.00;;;11.26;82.37
73085;BME280;62974;49.460;10.892;2023-02-21T12:54:18;97998.81;;;11.35;82.02
73085;BME280;62974;49.460;10.892;2023-02-21T12:56:52;98002.81;;;11.45;81.61
73085;BME280;62974;49.460;10.892;2023-02-21T12:59:26;97992.22;;;11.98;78.63
73085;BME280;62974;49.460;10.892;2023-02-21T13:02:00;97983.81;;;11.53;81.04
73085;BME280;62974;49.460;10.892;2023-02-21T13:04:37;97980.22;;;12.07;78.34
73085;BME280;62974;49.460;10.892;2023-02-21T13:07:12;97975.28;;;12.17;77.68
73085;BME280;62974;49.460;10.892;2023-02-21T13:09:48;97980.63;;;11.97;79.25
73085;BME280;62974;49.460;10.892;2023-02-21T13:12:20;97976.28;;;12.22;78.92
73085;BME280;62974;49.460;10.892;2023-02-21T13:14:53;97970.28;;;12.20;77.66
73085;BME280;62974;49.460;10.892;2023-02-21T13:17:22;97955.75;;;12.67;75.41
73085;BME280;62974;49.460;10.892;2023-02-21T13:19:54;97947.88;;;12.66;75.18
73085;BME280;62974;49.460;10.892;2023-02-21T13:25:58;97943.31;;;12.66;75.03
73085;BME280;62974;49.460;10.892;2023-02-21T13:28:30;97941.72;;;12.26;77.33
73085;BME280;62974;49.460;10.892;2023-02-21T13:31:04;97944.63;;;12.05;78.29
73085;BME280;62974;49.460;10.892;2023-02-21T13:33:36;97941.09;;;12.24;77.84
73085;BME280;62974;49.460;10.892;2023-02-21T13:36:20;97935.91;;;12.49;77.22
73085;BME280;62974;49.460;10.892;2023-02-21T13:39:11;97934.03;;;12.23;77.41
73085;BME280;62974;49.460;10.892;2023-02-21T13:41:41;97938.59;;;12.36;77.78
73085;BME280;62974;49.460;10.892;2023-02-21T13:44:15;97930.94;;;12.46;77.21
73085;BME280;62974;49.460;10.892;2023-02-21T13:47:00;97926.59;;;12.45;76.98